createdAt,value
2023-02-12T00:02:03.929Z,102866.94
2023-02-12T00:04:30.313Z,102866.19
2023-02-12T00:06:56.646Z,102870.41
2023-02-12T00:09:22.973Z,102877.69
2023-02-12T00:11:49.314Z,102879.03
2023-02-12T00:14:15.639Z,102875.41
2023-02-12T00:16:41.971Z,102877.53
2023-02-12T00:19:08.781Z,102878.91
2023-02-12T00:21:35.597Z,102883.88
2023-02-12T00:24:02.215Z,102883.88
2023-02-12T00:26:28.542Z,102879.50
2023-02-12T00:28:55.226Z,102877.38
2023-02-12T00:31:23.096Z,102881.63
2023-02-12T00:33:49.545Z,102880.06
2023-02-12T00:36:16.857Z,102878.56
2023-02-12T00:38:43.933Z,102879.31
2023-02-12T00:41:10.258Z,102884.31
2023-02-12T00:43:36.574Z,102885.66
2023-02-12T00:46:03.020Z,102895.81
2023-02-12T00:48:29.358Z,102902.91
2023-02-12T00:50:55.697Z,102894.28
2023-02-12T00:53:22.012Z,102900.03
2023-02-12T00:55:48.541Z,102909.28
2023-02-12T00:58:18.804Z,102914.59
2023-02-12T01:00:45.367Z,102910.38
2023-02-12T01:03:11.720Z,102916.28
2023-02-12T01:05:38.063Z,102911.88
2023-02-12T01:08:04.413Z,102903.09
2023-02-12T01:10:30.756Z,102908.69
2023-02-12T01:12:57.092Z,102911.38
2023-02-12T01:15:23.967Z,102912.75
2023-02-12T01:17:53.262Z,102917.75
2023-02-12T01:20:20.102Z,102913.97
2023-02-12T01:22:46.418Z,102917.00
2023-02-12T01:25:12.888Z,102925.47
2023-02-12T01:27:39.208Z,102919.72
2023-02-12T01:30:05.944Z,102923.94
2023-02-12T01:32:33.844Z,102916.06
2023-02-12T01:35:00.158Z,102923.94
2023-02-12T01:37:26.478Z,102920.28
2023-02-12T01:39:52.801Z,102929.69
2023-02-12T01:42:19.140Z,102931.06
2023-02-12T01:44:46.086Z,102933.16
2023-02-12T01:47:14.916Z,102931.63
2023-02-12T01:49:41.838Z,102929.50
2023-02-12T01:52:09.490Z,102930.28
2023-02-12T01:54:35.963Z,102937.38
2023-02-12T01:57:02.312Z,102942.38
2023-02-12T01:59:28.844Z,102942.38
2023-02-12T02:01:55.346Z,102947.97
2023-02-12T02:04:23.458Z,102941.63
2023-02-12T02:06:55.550Z,102946.59
2023-02-12T02:09:22.111Z,102949.47
2023-02-12T02:12:07.375Z,102948.72
2023-02-12T02:14:33.739Z,102945.09
2023-02-12T02:17:21.122Z,102950.09
2023-02-12T02:19:55.196Z,102940.72
2023-02-12T02:22:26.573Z,102949.34
2023-02-12T02:24:54.516Z,102942.06
2023-02-12T02:27:28.079Z,102942.06
2023-02-12T02:30:13.162Z,102939.75
2023-02-12T02:32:45.063Z,102944.75
2023-02-12T02:35:12.526Z,102941.88
2023-02-12T02:37:40.039Z,102941.88
2023-02-12T02:40:18.787Z,102950.50
2023-02-12T02:43:03.915Z,102948.25
2023-02-12T02:45:37.967Z,102955.50
2023-02-12T02:48:13.546Z,102954.00
2023-02-12T02:50:40.702Z,102950.34
2023-02-12T02:53:25.458Z,102946.72
2023-02-12T02:55:52.953Z,102952.47
2023-02-12T02:58:19.430Z,102951.72
2023-02-12T03:01:12.105Z,102950.94
2023-02-12T03:03:40.147Z,102955.78
2023-02-12T03:06:08.842Z,102954.41
2023-02-12T03:08:36.275Z,102952.91
2023-02-12T03:11:13.116Z,102960.16
2023-02-12T03:13:46.846Z,102970.16
2023-02-12T03:16:18.050Z,102970.16
2023-02-12T03:18:50.028Z,102974.38
2023-02-12T03:21:17.692Z,102969.38
2023-02-12T03:23:46.985Z,102974.38
2023-02-12T03:26:15.319Z,102977.25
2023-02-12T03:28:41.649Z,102980.13
2023-02-12T03:31:28.716Z,102974.38
2023-02-12T03:34:27.616Z,102988.00
2023-02-12T03:36:56.630Z,102985.88
2023-02-12T03:39:25.995Z,102983.16
2023-02-12T03:41:59.442Z,102986.22
2023-02-12T03:44:28.672Z,102976.22
2023-02-12T03:47:00.267Z,102992.31
2023-02-12T03:49:31.445Z,102993.81
2023-02-12T03:51:58.583Z,103002.59
2023-02-12T03:54:24.894Z,102989.59
2023-02-12T03:56:55.594Z,103001.25
2023-02-12T03:59:22.038Z,102996.84
2023-02-12T04:01:48.847Z,103004.13
2023-02-12T04:04:15.313Z,103009.88
2023-02-12T04:06:41.701Z,103004.91
2023-02-12T04:09:09.029Z,103017.16
2023-02-12T04:11:43.391Z,103007.16
2023-02-12T04:14:28.036Z,103018.66
2023-02-12T04:17:04.331Z,103025.97
2023-02-12T04:19:35.779Z,103025.19
2023-02-12T04:22:08.187Z,103029.00
2023-02-12T04:24:51.009Z,103029.00
2023-02-12T04:27:20.535Z,103031.38
2023-02-12T04:29:58.275Z,103024.34
2023-02-12T04:32:28.801Z,103029.75
2023-02-12T04:34:55.052Z,103033.56
2023-02-12T04:37:32.654Z,103022.22
2023-02-12T04:39:58.982Z,103022.81
2023-02-12T04:42:25.322Z,103025.84
2023-02-12T04:44:51.656Z,103019.34
2023-02-12T04:47:18.026Z,103038.91
2023-02-12T04:49:44.347Z,103034.66
2023-02-12T04:52:10.700Z,103019.69
2023-02-12T04:54:37.061Z,103020.44
2023-02-12T04:57:03.403Z,103016.19
2023-02-12T04:59:29.723Z,103022.72
2023-02-12T05:01:56.046Z,103022.72
2023-02-12T05:04:22.362Z,103034.22
2023-02-12T05:06:48.700Z,103029.25
2023-02-12T05:09:15.979Z,103032.88
2023-02-12T05:11:42.296Z,103032.13
2023-02-12T05:14:08.625Z,103020.00
2023-02-12T05:16:34.975Z,103025.75
2023-02-12T05:19:01.348Z,103024.41
2023-02-12T05:21:27.748Z,103030.16
2023-02-12T05:23:54.071Z,103038.22
2023-02-12T05:26:20.834Z,103041.84
2023-02-12T05:28:47.231Z,103041.84
2023-02-12T05:31:14.894Z,103036.09
2023-02-12T05:33:44.726Z,103041.84
2023-02-12T05:36:11.730Z,103047.59
2023-02-12T05:38:38.070Z,103040.47
2023-02-12T05:41:04.955Z,103046.06
2023-02-12T05:43:31.340Z,103053.34
2023-02-12T05:46:04.268Z,103053.34
2023-02-12T05:48:30.877Z,103054.84
2023-02-12T05:51:03.970Z,103059.84
2023-02-12T05:53:30.305Z,103057.91
2023-02-12T05:56:05.890Z,103057.16
2023-02-12T05:58:32.231Z,103052.91
2023-02-12T06:00:58.583Z,103056.56
2023-02-12T06:03:24.940Z,103060.78
2023-02-12T06:05:51.423Z,103065.19
2023-02-12T06:08:17.748Z,103069.41
2023-02-12T06:10:44.092Z,103075.16
2023-02-12T06:13:10.421Z,103070.94
2023-02-12T06:15:36.928Z,103070.94
2023-02-12T06:18:03.277Z,103073.81
2023-02-12T06:20:29.591Z,103070.94
2023-02-12T06:22:55.909Z,103081.09
2023-02-12T06:25:22.227Z,103083.97
2023-02-12T06:27:48.561Z,103085.50
2023-02-12T06:30:14.968Z,103092.00
2023-02-12T06:32:41.319Z,103097.00
2023-02-12T06:35:07.655Z,103099.28
2023-02-12T06:37:36.958Z,103105.66
2023-02-12T06:40:03.356Z,103109.28
2023-02-12T06:42:29.693Z,103105.66
2023-02-12T06:44:56.020Z,103108.53
2023-02-12T06:47:22.337Z,103120.03
2023-02-12T06:49:48.656Z,103115.03
2023-02-12T06:52:14.974Z,103117.28
2023-02-12T06:54:41.324Z,103115.78
2023-02-12T06:57:07.643Z,103130.16
2023-02-12T06:59:33.969Z,103133.22
2023-02-12T07:02:00.320Z,103133.22
2023-02-12T07:04:26.672Z,103138.38
2023-02-12T07:06:53.006Z,103132.63
2023-02-12T07:09:19.367Z,103131.84
2023-02-12T07:11:45.684Z,103128.81
2023-02-12T07:14:13.478Z,103134.72
2023-02-12T07:16:39.830Z,103134.72
2023-02-12T07:19:06.172Z,103136.09
2023-02-12T07:21:32.492Z,103140.47
2023-02-12T07:23:58.802Z,103141.84
2023-02-12T07:26:25.121Z,103137.59
2023-02-12T07:28:51.437Z,103142.03
2023-02-12T07:31:18.694Z,103145.66
2023-02-12T07:33:45.119Z,103146.59
2023-02-12T07:36:12.351Z,103141.75
2023-02-12T07:38:41.701Z,103148.72
2023-02-12T07:41:15.195Z,103148.72
2023-02-12T07:43:41.716Z,103150.81
2023-02-12T07:46:11.977Z,103144.28
2023-02-12T07:48:38.370Z,103157.16
2023-02-12T07:51:05.825Z,103155.03
2023-02-12T07:53:32.184Z,103157.16
2023-02-12T07:56:11.710Z,103160.81
2023-02-12T07:58:38.145Z,103165.22
2023-02-12T08:01:11.386Z,103168.69
2023-02-12T08:03:37.930Z,103167.56
2023-02-12T08:06:30.687Z,103169.78
2023-02-12T08:08:57.760Z,103181.28
2023-02-12T08:11:24.178Z,103181.63
2023-02-12T08:13:51.153Z,103183.13
2023-02-12T08:16:18.425Z,103179.56
2023-02-12T08:18:44.780Z,103181.53
2023-02-12T08:21:11.980Z,103186.38
2023-02-12T08:23:38.312Z,103181.97
2023-02-12T08:26:07.660Z,103185.44
2023-02-12T08:28:34.081Z,103187.72
2023-02-12T08:31:01.546Z,103200.75
2023-02-12T08:33:27.909Z,103202.69
2023-02-12T08:36:01.744Z,103195.25
2023-02-12T08:38:28.227Z,103206.00
2023-02-12T08:40:55.483Z,103209.22
2023-02-12T08:43:21.840Z,103209.91
2023-02-12T08:45:48.200Z,103211.59
2023-02-12T08:48:14.559Z,103218.84
2023-02-12T08:50:40.906Z,103220.97
2023-02-12T08:53:07.759Z,103223.94
2023-02-12T08:55:34.086Z,103224.97
2023-02-12T08:58:01.257Z,103223.44
2023-02-12T09:00:27.604Z,103222.69
2023-02-12T09:02:53.924Z,103218.28
2023-02-12T09:05:20.239Z,103227.69
2023-02-12T09:07:46.633Z,103226.31
2023-02-12T09:10:13.024Z,103229.19
2023-02-12T09:12:39.339Z,103234.94
2023-02-12T09:15:05.756Z,103230.72
2023-02-12T09:17:32.084Z,103238.00
2023-02-12T09:19:58.453Z,103237.25
2023-02-12T09:22:24.801Z,103245.13
2023-02-12T09:24:51.127Z,103240.88
2023-02-12T09:27:17.443Z,103249.50
2023-02-12T09:29:43.769Z,103249.50
2023-02-12T09:32:10.443Z,103249.50
2023-02-12T09:34:36.799Z,103249.34
2023-02-12T09:37:03.132Z,103252.22
2023-02-12T09:39:30.703Z,103256.47
2023-02-12T09:42:03.098Z,103261.47
2023-02-12T09:44:37.628Z,103260.66
2023-02-12T09:47:09.867Z,103269.84
2023-02-12T09:49:46.240Z,103264.47
2023-02-12T09:52:13.616Z,103263.72
2023-02-12T09:54:39.946Z,103266.03
2023-02-12T09:57:15.192Z,103274.06
2023-02-12T09:59:43.673Z,103276.94
2023-02-12T10:02:14.201Z,103274.06
2023-02-12T10:04:55.131Z,103277.53
2023-02-12T10:07:36.502Z,103277.53
2023-02-12T10:10:08.054Z,103277.53
2023-02-12T10:12:46.927Z,103281.75
2023-02-12T10:15:24.065Z,103278.13
2023-02-12T10:17:59.528Z,103275.25
2023-02-12T10:20:25.779Z,103276.00
2023-02-12T10:23:04.271Z,103273.13
2023-02-12T10:25:48.128Z,103275.25
2023-02-12T10:28:19.455Z,103274.41
2023-02-12T10:30:51.325Z,103271.69
2023-02-12T10:33:19.432Z,103273.22
2023-02-12T10:35:48.229Z,103272.88
2023-02-12T10:38:16.366Z,103276.88
2023-02-12T10:40:43.239Z,103268.97
2023-02-12T10:43:10.654Z,103268.97
2023-02-12T10:45:39.698Z,103274.75
2023-02-12T10:48:06.103Z,103281.25
2023-02-12T10:50:32.362Z,103279.75
2023-02-12T10:53:00.732Z,103277.44
2023-02-12T10:55:28.330Z,103280.31
2023-02-12T10:57:54.665Z,103275.31
2023-02-12T11:00:33.997Z,103280.16
2023-02-12T11:03:04.644Z,103280.31
2023-02-12T11:05:31.546Z,103283.19
2023-02-12T11:07:57.856Z,103278.19
2023-02-12T11:10:27.905Z,103278.19
2023-02-12T11:12:54.260Z,103285.50
2023-02-12T11:15:22.082Z,103274.75
2023-02-12T11:17:55.527Z,103273.41
2023-02-12T11:20:25.867Z,103274.84
2023-02-12T11:22:59.026Z,103271.50
2023-02-12T11:25:26.489Z,103272.00
2023-02-12T11:27:59.425Z,103265.28
2023-02-12T11:30:25.914Z,103264.81
2023-02-12T11:32:53.139Z,103264.81
2023-02-12T11:35:26.250Z,103259.81
2023-02-12T11:37:56.356Z,103266.69
2023-02-12T11:40:26.808Z,103277.28
2023-02-12T11:42:56.729Z,103265.94
2023-02-12T11:45:25.504Z,103267.47
2023-02-12T11:47:51.813Z,103262.47
2023-02-12T11:50:25.310Z,103267.66
2023-02-12T11:52:52.215Z,103258.22
2023-02-12T11:55:20.685Z,103254.59
2023-02-12T11:57:47.821Z,103255.34
2023-02-12T12:00:14.280Z,103241.75
2023-02-12T12:02:50.662Z,103240.38
2023-02-12T12:05:19.396Z,103242.50
2023-02-12T12:07:47.859Z,103249.38
2023-02-12T12:10:22.611Z,103249.97
2023-02-12T12:12:50.927Z,103254.75
2023-02-12T12:15:38.004Z,103249.00
2023-02-12T12:18:43.245Z,103247.50
2023-02-12T12:21:11.775Z,103249.84
2023-02-12T12:23:42.448Z,103240.78
2023-02-12T12:26:17.222Z,103243.72
2023-02-12T12:28:46.590Z,103237.81
2023-02-12T12:31:17.240Z,103236.31
2023-02-12T12:33:50.142Z,103231.66
2023-02-12T12:36:35.268Z,103224.97
2023-02-12T12:39:04.152Z,103227.44
2023-02-12T12:41:53.884Z,103220.50
2023-02-12T12:44:26.404Z,103203.53
2023-02-12T12:46:56.104Z,103201.78
2023-02-12T12:49:41.336Z,103206.78
2023-02-12T12:52:10.654Z,103213.06
2023-02-12T12:54:44.233Z,103211.09
2023-02-12T12:57:33.587Z,103216.69
2023-02-12T13:00:02.756Z,103207.47
2023-02-12T13:02:50.735Z,103216.84
2023-02-12T13:05:36.001Z,103212.78
2023-02-12T13:08:05.324Z,103217.38
2023-02-12T13:10:39.789Z,103210.06
2023-02-12T13:13:08.645Z,103206.59
2023-02-12T13:15:53.860Z,103216.19
2023-02-12T13:18:25.719Z,103209.22
2023-02-12T13:21:06.400Z,103211.09
2023-02-12T13:23:41.339Z,103209.38
2023-02-12T13:26:12.981Z,103200.91
2023-02-12T13:28:42.604Z,103212.25
2023-02-12T13:31:30.146Z,103209.56
2023-02-12T13:33:56.498Z,103200.75
2023-02-12T13:36:23.273Z,103198.47
2023-02-12T13:39:01.263Z,103202.44
2023-02-12T13:41:27.614Z,103202.50
2023-02-12T13:44:07.560Z,103200.22
2023-02-12T13:46:44.095Z,103195.31
2023-02-12T13:49:13.812Z,103196.72
2023-02-12T13:51:44.135Z,103193.56
2023-02-12T13:54:17.089Z,103199.97
2023-02-12T13:56:44.043Z,103188.06
2023-02-12T13:59:29.211Z,103190.09
2023-02-12T14:01:55.572Z,103191.63
2023-02-12T14:04:23.156Z,103191.28
2023-02-12T14:06:53.304Z,103190.31
2023-02-12T14:09:20.636Z,103198.22
2023-02-12T14:11:47.931Z,103192.03
2023-02-12T14:14:14.247Z,103191.59
2023-02-12T14:16:40.668Z,103187.38
2023-02-12T14:19:25.945Z,103183.91
2023-02-12T14:21:52.274Z,103181.19
2023-02-12T14:24:38.512Z,103185.00
2023-02-12T14:27:17.049Z,103192.28
2023-02-12T14:30:00.021Z,103193.97
2023-02-12T14:32:44.935Z,103202.59
2023-02-12T14:35:26.597Z,103194.16
2023-02-12T14:37:56.580Z,103201.44
2023-02-12T14:40:35.042Z,103202.19
2023-02-12T14:43:01.847Z,103198.69
2023-02-12T14:45:29.338Z,103195.69
2023-02-12T14:47:55.804Z,103199.66
2023-02-12T14:50:23.120Z,103193.66
2023-02-12T14:52:52.357Z,103180.53
2023-02-12T14:55:20.157Z,103190.75
2023-02-12T14:57:46.482Z,103185.16
2023-02-12T15:00:20.603Z,103179.41
2023-02-12T15:02:52.489Z,103189.16
2023-02-12T15:05:20.268Z,103195.16
2023-02-12T15:07:55.619Z,103187.03
2023-02-12T15:10:23.072Z,103188.13
2023-02-12T15:12:54.266Z,103186.03
2023-02-12T15:15:25.518Z,103188.91
2023-02-12T15:18:12.052Z,103193.91
2023-02-12T15:20:40.066Z,103188.91
2023-02-12T15:23:25.033Z,103189.66
2023-02-12T15:25:51.400Z,103190.44
2023-02-12T15:28:22.880Z,103194.66
2023-02-12T15:30:49.315Z,103196.03
2023-02-12T15:33:24.524Z,103198.91
2023-02-12T15:35:50.864Z,103197.34
2023-02-12T15:38:20.547Z,103193.56
2023-02-12T15:40:53.620Z,103201.44
2023-02-12T15:43:19.928Z,103207.34
2023-02-12T15:45:49.807Z,103206.44
2023-02-12T15:48:17.957Z,103205.06
2023-02-12T15:50:50.415Z,103211.56
2023-02-12T15:53:16.788Z,103217.69
2023-02-12T15:55:43.979Z,103212.53
2023-02-12T15:58:27.312Z,103216.50
2023-02-12T16:00:54.246Z,103221.41
2023-02-12T16:03:21.537Z,103223.13
2023-02-12T16:05:48.204Z,103219.81
2023-02-12T16:08:14.908Z,103229.13
2023-02-12T16:10:50.786Z,103232.75
2023-02-12T16:13:24.522Z,103231.72
2023-02-12T16:16:06.700Z,103227.34
2023-02-12T16:18:33.274Z,103229.72
2023-02-12T16:21:12.782Z,103227.06
2023-02-12T16:23:39.116Z,103227.16
2023-02-12T16:26:05.517Z,103239.88
2023-02-12T16:28:32.850Z,103241.41
2023-02-12T16:31:09.422Z,103240.19
2023-02-12T16:33:44.853Z,103231.84
2023-02-12T16:36:13.318Z,103235.31
2023-02-12T16:38:40.879Z,103233.03
2023-02-12T16:41:20.781Z,103237.84
2023-02-12T16:44:02.289Z,103242.25
2023-02-12T16:46:28.900Z,103233.44
2023-02-12T16:48:55.521Z,103238.47
2023-02-12T16:51:23.511Z,103237.69
2023-02-12T16:53:53.697Z,103243.47
2023-02-12T16:56:21.162Z,103240.88
2023-02-12T16:58:48.491Z,103243.09
2023-02-12T17:01:15.399Z,103245.69
2023-02-12T17:03:41.794Z,103243.25
2023-02-12T17:06:09.356Z,103241.66
2023-02-12T17:08:35.677Z,103252.00
2023-02-12T17:11:02.029Z,103251.59
2023-02-12T17:13:28.402Z,103254.47
2023-02-12T17:15:56.069Z,103252.34
2023-02-12T17:18:22.624Z,103255.81
2023-02-12T17:20:54.228Z,103260.41
2023-02-12T17:23:23.711Z,103257.69
2023-02-12T17:25:50.175Z,103274.97
2023-02-12T17:28:16.518Z,103261.72
2023-02-12T17:30:42.867Z,103264.59
2023-02-12T17:33:09.193Z,103253.09
2023-02-12T17:35:36.823Z,103268.84
2023-02-12T17:38:03.161Z,103263.84
2023-02-12T17:40:29.474Z,103261.56
2023-02-12T17:42:55.804Z,103264.44
2023-02-12T17:45:22.164Z,103262.94
2023-02-12T17:47:49.818Z,103259.28
2023-02-12T17:50:16.622Z,103270.06
2023-02-12T17:52:43.203Z,103265.81
2023-02-12T17:55:11.416Z,103270.06
2023-02-12T17:57:37.772Z,103270.06
2023-02-12T18:00:04.980Z,103264.72
2023-02-12T18:02:36.871Z,103271.22
2023-02-12T18:05:03.209Z,103274.72
2023-02-12T18:07:31.863Z,103269.34
2023-02-12T18:09:58.204Z,103273.53
2023-02-12T18:12:24.539Z,103270.34
2023-02-12T18:14:50.865Z,103274.56
2023-02-12T18:17:17.207Z,103275.94
2023-02-12T18:19:43.552Z,103270.19
2023-02-12T18:22:09.892Z,103262.88
2023-02-12T18:24:36.396Z,103267.13
2023-02-12T18:27:02.772Z,103269.84
2023-02-12T18:29:29.116Z,103264.81
2023-02-12T18:31:55.514Z,103265.00
2023-02-12T18:34:22.147Z,103266.94
2023-02-12T18:36:48.487Z,103270.34
2023-02-12T18:39:14.824Z,103266.44
2023-02-12T18:41:41.195Z,103276.06
2023-02-12T18:44:07.530Z,103269.47
2023-02-12T18:46:33.884Z,103265.94
2023-02-12T18:49:00.233Z,103259.00
2023-02-12T18:51:27.274Z,103266.44
2023-02-12T18:53:54.450Z,103270.88
2023-02-12T18:56:20.871Z,103266.66
2023-02-12T18:58:47.223Z,103266.66
2023-02-12T19:01:17.246Z,103262.41
2023-02-12T19:03:44.028Z,103272.22
2023-02-12T19:06:10.402Z,103272.75
2023-02-12T19:08:36.742Z,103270.06
2023-02-12T19:11:03.144Z,103264.72
2023-02-12T19:13:29.480Z,103269.72
2023-02-12T19:15:56.120Z,103261.81
2023-02-12T19:18:22.562Z,103258.94
2023-02-12T19:20:48.920Z,103260.53
2023-02-12T19:23:15.266Z,103259.69
2023-02-12T19:25:43.304Z,103259.13
2023-02-12T19:28:09.991Z,103261.25
2023-02-12T19:30:36.848Z,103268.34
2023-02-12T19:33:03.186Z,103258.94
2023-02-12T19:35:29.517Z,103263.94
2023-02-12T19:37:55.846Z,103263.94
2023-02-12T19:40:22.175Z,103268.94
2023-02-12T19:42:48.498Z,103269.84
2023-02-12T19:45:14.823Z,103261.09
2023-02-12T19:47:41.142Z,103260.91
2023-02-12T19:50:07.549Z,103265.91
2023-02-12T19:52:33.894Z,103260.91
2023-02-12T19:55:00.228Z,103259.34
2023-02-12T19:57:26.575Z,103257.06
2023-02-12T19:59:53.016Z,103256.28
2023-02-12T20:02:19.456Z,103264.91
2023-02-12T20:04:47.194Z,103256.88
2023-02-12T20:07:13.520Z,103257.47
2023-02-12T20:09:40.104Z,103257.47
2023-02-12T20:12:06.506Z,103257.47
2023-02-12T20:14:32.812Z,103263.22
2023-02-12T20:16:59.159Z,103267.66
2023-02-12T20:19:26.689Z,103272.03
2023-02-12T20:21:56.664Z,103260.53
2023-02-12T20:24:26.744Z,103263.56
2023-02-12T20:26:53.231Z,103263.56
2023-02-12T20:29:19.567Z,103263.19
2023-02-12T20:31:46.034Z,103266.66
2023-02-12T20:34:13.767Z,103265.13
2023-02-12T20:36:40.859Z,103266.66
2023-02-12T20:39:07.562Z,103262.22
2023-02-12T20:41:36.922Z,103271.03
2023-02-12T20:44:03.759Z,103260.69
2023-02-12T20:46:30.086Z,103269.34
2023-02-12T20:48:57.472Z,103263.41
2023-02-12T20:51:24.664Z,103262.03
2023-02-12T20:53:51.011Z,103250.53
2023-02-12T20:56:18.448Z,103257.81
2023-02-12T20:58:45.035Z,103249.97
2023-02-12T21:01:14.950Z,103252.06
2023-02-12T21:03:41.394Z,103248.63
2023-02-12T21:06:07.739Z,103248.63
2023-02-12T21:08:35.336Z,103253.59
2023-02-12T21:11:02.394Z,103246.31
2023-02-12T21:13:28.735Z,103252.06
2023-02-12T21:16:10.027Z,103250.53
2023-02-12T21:18:36.385Z,103253.25
2023-02-12T21:21:03.465Z,103248.25
2023-02-12T21:23:29.808Z,103247.50
2023-02-12T21:25:59.708Z,103246.31
2023-02-12T21:28:26.125Z,103249.38
2023-02-12T21:30:52.493Z,103240.75
2023-02-12T21:33:18.819Z,103245.13
2023-02-12T21:35:45.133Z,103250.91
2023-02-12T21:38:11.480Z,103245.13
2023-02-12T21:40:37.819Z,103244.38
2023-02-12T21:43:04.166Z,103249.97
2023-02-12T21:45:30.531Z,103242.09
2023-02-12T21:47:56.908Z,103249.19
2023-02-12T21:50:23.219Z,103251.31
2023-02-12T21:52:51.500Z,103243.25
2023-02-12T21:55:17.825Z,103253.25
2023-02-12T21:57:44.159Z,103250.38
2023-02-12T22:00:11.576Z,103237.50
2023-02-12T22:02:41.567Z,103245.97
2023-02-12T22:05:07.918Z,103245.97
2023-02-12T22:07:34.251Z,103249.41
2023-02-12T22:10:00.931Z,103248.66
2023-02-12T22:12:32.146Z,103248.66
2023-02-12T22:14:58.466Z,103247.16
2023-02-12T22:17:24.788Z,103229.72
2023-02-12T22:19:51.105Z,103239.09
2023-02-12T22:22:17.457Z,103249.84
2023-02-12T22:24:43.767Z,103239.69
2023-02-12T22:27:10.088Z,103231.03
2023-02-12T22:29:36.408Z,103239.69
2023-02-12T22:32:02.804Z,103241.81
2023-02-12T22:34:29.196Z,103241.97
2023-02-12T22:36:55.544Z,103239.69
2023-02-12T22:39:22.317Z,103245.28
2023-02-12T22:41:48.719Z,103245.28
2023-02-12T22:44:15.358Z,103243.00
2023-02-12T22:46:42.015Z,103242.25
2023-02-12T22:49:08.340Z,103235.69
2023-02-12T22:51:36.647Z,103242.25
2023-02-12T22:54:03.051Z,103245.69
2023-02-12T22:56:29.374Z,103250.69
2023-02-12T22:58:56.048Z,103255.69
2023-02-12T23:01:22.510Z,103253.41
2023-02-12T23:03:48.958Z,103247.47
2023-02-12T23:06:17.446Z,103256.09
2023-02-12T23:08:43.860Z,103261.88
2023-02-12T23:11:10.789Z,103254.59
2023-02-12T23:13:37.357Z,103258.81
2023-02-12T23:16:03.699Z,103240.78
2023-02-12T23:18:30.028Z,103244.41
2023-02-12T23:20:56.717Z,103245.78
2023-02-12T23:23:23.218Z,103238.50
2023-02-12T23:25:49.530Z,103241.97
2023-02-12T23:28:15.896Z,103246.94
2023-02-12T23:30:42.405Z,103249.81
2023-02-12T23:33:08.787Z,103241.19
2023-02-12T23:35:35.208Z,103245.44
2023-02-12T23:38:01.555Z,103243.91
2023-02-12T23:40:27.900Z,103243.16
2023-02-12T23:42:54.225Z,103242.75
2023-02-12T23:45:20.541Z,103245.44
2023-02-12T23:47:46.871Z,103245.25
2023-02-12T23:50:13.202Z,103253.13
2023-02-12T23:52:39.528Z,103252.38
2023-02-12T23:55:05.970Z,103263.91
2023-02-12T23:57:32.300Z,103249.50
2023-02-12T23:59:58.619Z,103247.97
